Date,TemperatureHighF,TemperatureAvgF,TemperatureLowF,DewpointHighF,DewpointAvgF,DewpointLowF,HumidityHigh,HumidityAvg,HumidityLow,PressureMaxIn,PressureMinIn,WindSpeedMaxMPH,WindSpeedAvgMPH,GustSpeedMaxMPH,PrecipitationSumIn
2013-9-1,76.1,72.4,69.9,74.5,71.8,69.5,100,98,93,29.86,29.79,9,1,9,0.23
2013-9-2,80.8,73.2,71.2,76.4,72.6,71.2,100,98,86,29.85,29.69,8,0,10,0.07
2013-9-3,80.2,71.0,65.6,75.7,70.2,65.2,100,98,81,29.78,29.65,9,0,10,0.02
2013-9-4,78.0,67.0,58.8,67.3,63.1,58.8,100,88,63,29.89,29.76,6,0,7,0.03
2013-9-5,69.8,62.1,52.0,68.0,60.2,51.3,100,94,82,30.07,29.84,7,0,7,0.01
2013-9-6,69.0,57.3,49.3,56.4,52.3,48.4,99,85,58,30.19,30.07,6,0,6,0.02
2013-9-7,72.5,60.9,48.0,59.4,54.6,47.5,100,81,58,30.08,29.85,9,1,9,0.00
2013-9-8,76.5,66.1,54.2,66.9,58.8,45.1,98,78,58,30.04,29.71,9,1,9,0.01
2013-9-9,69.0,57.4,46.6,54.5,49.7,44.6,97,77,51,30.21,30.03,6,0,8,0.01
2013-9-10,72.8,65.3,55.4,68.5,61.8,53.8,97,89,74,30.16,30.03,12,1,13,0.01
2013-9-11,86.3,74.6,68.7,77.7,71.5,68.1,99,91,74,30.07,29.96,9,1,9,0.00
2013-9-12,80.6,73.1,69.1,74.2,70.7,68.5,99,92,80,29.99,29.67,15,1,15,0.01
2013-9-13,75.6,69.7,61.3,71.6,68.0,59.9,100,94,83,29.69,29.53,7,0,11,0.61
2013-9-14,70.0,62.3,54.1,61.6,58.2,51.8,96,87,70,30.01,29.69,3,0,4,0.00
2013-9-15,70.8,58.8,50.8,56.9,53.1,49.8,97,83,58,30.13,30.01,6,0,6,0.00
2013-9-16,63.1,58.6,53.9,60.4,55.7,46.8,99,90,72,30.15,29.99,5,0,5,0.01
2013-9-17,58.3,51.9,41.1,48.4,43.7,39.8,95,74,57,30.35,30.15,14,1,14,0.00
2013-9-18,73.2,56.0,40.3,52.9,47.1,39.1,97,75,41,30.30,30.12,4,0,4,0.00
2013-9-19,76.3,62.2,52.2,60.5,55.8,51.1,98,82,48,30.13,30.02,5,0,5,0.00
2013-9-20,80.0,62.6,50.8,63.4,56.0,50.0,100,82,47,30.06,29.99,6,0,6,0.00
2013-9-21,75.9,65.2,54.4,67.0,61.8,53.8,100,90,67,30.02,29.74,14,1,14,0.01
2013-9-22,70.7,65.3,52.1,68.4,62.4,49.3,99,90,78,29.76,29.62,12,1,15,0.23
2013-9-23,63.7,52.8,44.3,50.8,46.8,42.5,95,81,57,29.95,29.76,5,0,6,0.00
2013-9-24,63.9,51.6,42.4,51.1,45.8,40.3,94,82,60,29.95,29.79,4,0,4,0.00
2013-9-25,64.5,54.1,45.1,53.0,48.9,44.0,98,84,59,29.94,29.85,6,0,7,0.00
2013-9-26,61.7,55.1,49.5,52.2,50.5,48.0,96,85,69,30.07,29.94,7,0,8,0.00
2013-9-27,62.1,56.5,48.5,56.2,53.1,47.4,97,89,77,30.22,30.07,10,0,10,0.00
2013-9-28,69.3,56.7,46.3,60.9,53.7,45.5,100,90,73,30.28,30.21,5,0,6,0.00
2013-9-29,67.8,55.6,44.4,57.4,52.2,43.6,100,89,67,30.23,30.06,5,0,5,0.00
2013-9-30,64.8,58.4,49.9,58.9,55.8,48.8,99,92,79,30.06,29.93,7,0,7,0.00